Davis Monthan Air Force Base
KDMA : now visible

Airfield :











YOU CAN JOIN US ON...

 
LOGIN :

Register | Disclaimer

   EN    FR    IT 

 









Legend :    VFR   Marginal VFR   IFR   Intensive IFR   Very Intensive IFR
Visi :
Ceiling :
>= 8 km
>= 3000ft
5 to 8 km
1000 to 3000 ft
1500m to 5 km
500 to 1000 ft
800 to 1500m
200 to 500 ft
< 800m
< 200 ft
Symbols :   Thunderstorms  Fog  Heavy snow  Heavy precipitations  Wind > 20 kt






- Airport Elevation : 2704 ft


KDMA - Davis Monthan Air Force Base

CURRENT METAR :
  • 090158Z AUTO 35007KT 10SM CLR 38/06 A2990 RMK AO2 SLP073 T03820060 FZRANO $

EXPIRED METARs :
  • 090017Z AUTO 32010KT 10SM CLR 40/07 A2990 RMK AO2 WSHFT 14 LTG DSNT SE SLP073 FZRANO $
  • 082358Z AUTO 31007KT 10SM CLR 40/07 A2990 RMK AO2 SLP073 T04030066 10405 20358 57017 FZRANO $

TAF TAF KDMA
Valid from the 08 at 22:00 until the 10 at 04:00 UTC


082158Z 0822/1004 25009KT 9999 FEW100 QNH2989INS
TEMPO 0822/0901 28012G18KT SCT100
BECMG 0903/0904 VRB06KT 9999 SCT100 QNH2995INS
BECMG 0919/0920 27009KT 9999 FEW120 QNH2985INS TX41/0823Z TN25/0913Z
KZAB FIR / North America



MET'MAP, your aeronautical weather chart ! - Copyright ORBIFLY December 2007 - Disclaimer

ORBIFLY MET'MAP TEAM :

Programming & Development : Alexandra Zaïnal
Concept & original design : Baudouin d'Aumeries
Assistance for programming : Marc-Olivier Méhu
Technical & hardware support : Manuel Goepfert

Contact : metmap@orbifly.com




SOURCES & CREDITS :

   NOAA       Earth
Advisory